createdAt,value
2023-02-24T00:00:32.202Z,5.00
2023-02-24T00:03:12.556Z,5.00
2023-02-24T00:05:44.685Z,4.80
2023-02-24T00:08:14.982Z,5.30
2023-02-24T00:10:43.933Z,4.80
2023-02-24T00:13:13.506Z,4.80
2023-02-24T00:15:45.916Z,4.80
2023-02-24T00:18:15.968Z,4.70
2023-02-24T00:20:44.682Z,4.80
2023-02-24T00:23:19.101Z,4.80
2023-02-24T00:25:47.689Z,5.00
2023-02-24T00:28:17.719Z,4.80
2023-02-24T00:30:46.073Z,4.60
2023-02-24T00:33:14.960Z,4.80
2023-02-24T00:35:43.451Z,4.60
2023-02-24T00:38:13.765Z,4.80
2023-02-24T00:40:45.513Z,4.70
2023-02-24T00:43:14.380Z,4.80
2023-02-24T00:45:52.233Z,4.60
2023-02-24T00:48:20.799Z,4.60
2023-02-24T00:50:49.308Z,4.60
2023-02-24T00:53:18.412Z,4.60
2023-02-24T00:55:48.045Z,4.50
2023-02-24T00:58:23.877Z,4.50
2023-02-24T01:00:52.475Z,4.40
2023-02-24T01:03:20.892Z,4.50
2023-02-24T01:05:52.686Z,4.50
2023-02-24T01:08:23.234Z,4.40
2023-02-24T01:11:17.663Z,4.40
2023-02-24T01:13:46.716Z,4.40
2023-02-24T01:16:18.844Z,4.40
2023-02-24T01:18:48.994Z,4.20
2023-02-24T01:21:18.064Z,4.30
2023-02-24T01:23:49.894Z,4.00
2023-02-24T01:26:20.396Z,4.50
2023-02-24T01:28:49.363Z,4.30
2023-02-24T01:31:21.102Z,4.10
2023-02-24T01:33:50.871Z,4.30
2023-02-24T01:36:22.514Z,4.10
2023-02-24T01:38:51.251Z,4.30
2023-02-24T01:41:23.592Z,4.70
2023-02-24T01:44:03.546Z,3.90
2023-02-24T01:46:34.464Z,4.00
2023-02-24T01:49:09.388Z,4.10
2023-02-24T01:51:42.310Z,4.20
2023-02-24T01:54:13.781Z,3.90
2023-02-24T01:56:44.315Z,3.90
2023-02-24T01:59:12.800Z,3.70
2023-02-24T02:01:42.904Z,3.80
2023-02-24T02:04:25.438Z,3.70
2023-02-24T02:06:55.051Z,3.70
2023-02-24T02:09:25.733Z,3.90
2023-02-24T02:11:55.441Z,3.50
2023-02-24T02:14:26.629Z,3.70
2023-02-24T02:17:12.621Z,3.70
2023-02-24T02:20:17.843Z,3.70
2023-02-24T02:23:13.875Z,3.80
2023-02-24T02:25:59.168Z,3.80
2023-02-24T02:28:51.317Z,3.80
2023-02-24T02:31:36.605Z,3.70
2023-02-24T02:34:29.086Z,3.50
2023-02-24T02:37:06.414Z,3.80
2023-02-24T02:39:44.284Z,3.80
2023-02-24T02:42:24.572Z,3.80
2023-02-24T02:45:00.300Z,3.80
2023-02-24T02:47:35.584Z,3.80
2023-02-24T02:50:12.036Z,3.70
2023-02-24T02:52:50.392Z,3.60
2023-02-24T02:55:25.956Z,3.60
2023-02-24T02:57:58.210Z,3.80
2023-02-24T03:00:30.789Z,3.70
2023-02-24T03:03:03.643Z,4.60
2023-02-24T03:05:37.503Z,4.20
2023-02-24T03:08:16.746Z,3.90
2023-02-24T03:10:51.284Z,3.90
2023-02-24T03:13:25.972Z,3.90
2023-02-24T03:15:58.366Z,4.00
2023-02-24T03:18:32.437Z,4.00
2023-02-24T03:21:08.109Z,4.00
2023-02-24T03:23:45.685Z,4.00
2023-02-24T03:26:21.851Z,4.00
2023-02-24T03:28:59.619Z,4.10
2023-02-24T03:31:33.275Z,4.00
2023-02-24T03:34:08.497Z,4.20
2023-02-24T03:36:40.021Z,4.00
2023-02-24T03:39:12.369Z,3.80
2023-02-24T03:41:47.708Z,4.10
2023-02-24T03:44:19.033Z,4.10
2023-02-24T03:46:47.920Z,4.50
2023-02-24T03:49:16.958Z,4.10
2023-02-24T03:51:52.333Z,4.20
2023-02-24T03:54:44.142Z,4.30
2023-02-24T03:57:27.354Z,4.10
2023-02-24T04:00:26.055Z,4.20
2023-02-24T04:03:06.910Z,4.10
2023-02-24T04:05:41.939Z,4.30
2023-02-24T04:08:11.149Z,4.30
2023-02-24T04:10:54.814Z,4.40
2023-02-24T04:13:35.450Z,4.20
2023-02-24T04:16:11.747Z,4.50
2023-02-24T04:18:46.137Z,4.30
2023-02-24T04:21:17.017Z,4.30
2023-02-24T04:23:50.274Z,4.60
2023-02-24T04:26:26.311Z,4.50
2023-02-24T04:28:56.634Z,4.40
2023-02-24T04:31:27.631Z,4.40
2023-02-24T04:33:58.039Z,4.60
2023-02-24T04:36:26.451Z,4.50
2023-02-24T04:38:55.692Z,4.50
2023-02-24T04:41:25.427Z,4.50
2023-02-24T04:43:55.574Z,4.50
2023-02-24T04:46:23.911Z,4.50
2023-02-24T04:48:52.710Z,4.60
2023-02-24T04:51:23.923Z,4.50
2023-02-24T04:53:55.594Z,4.50
2023-02-24T04:56:25.503Z,4.50
2023-02-24T04:58:53.730Z,4.80
2023-02-24T05:01:22.350Z,4.70
2023-02-24T05:03:50.906Z,4.50
2023-02-24T05:06:19.630Z,4.60
2023-02-24T05:08:50.751Z,4.60
2023-02-24T05:11:19.883Z,4.50
2023-02-24T05:13:53.875Z,4.50
2023-02-24T05:16:22.432Z,4.60
2023-02-24T05:18:51.114Z,4.60
2023-02-24T05:21:36.234Z,4.50
2023-02-24T05:24:08.072Z,4.80
2023-02-24T05:26:37.978Z,4.60
2023-02-24T05:29:09.908Z,4.60
2023-02-24T05:31:39.199Z,4.70
2023-02-24T05:34:09.342Z,4.60
2023-02-24T05:36:40.763Z,4.60
2023-02-24T05:39:19.736Z,4.70
2023-02-24T05:41:57.521Z,4.70
2023-02-24T05:44:47.477Z,4.70
2023-02-24T05:47:20.003Z,4.70
2023-02-24T05:49:53.004Z,4.70
2023-02-24T05:52:23.559Z,4.90
2023-02-24T05:55:18.704Z,5.00
2023-02-24T05:57:51.114Z,4.90
2023-02-24T06:00:33.585Z,4.90
2023-02-24T06:03:15.169Z,4.90
2023-02-24T06:05:44.104Z,5.00
2023-02-24T06:08:44.136Z,5.00
2023-02-24T06:11:14.178Z,5.00
2023-02-24T06:13:49.809Z,5.10
2023-02-24T06:16:24.874Z,5.20
2023-02-24T06:18:56.027Z,5.20
2023-02-24T06:21:46.929Z,5.20
2023-02-24T06:24:32.233Z,5.30
2023-02-24T06:27:20.755Z,5.40
2023-02-24T06:29:51.808Z,5.40
2023-02-24T06:32:38.647Z,5.50
2023-02-24T06:35:08.955Z,5.80
2023-02-24T06:37:37.694Z,5.60
2023-02-24T06:40:16.074Z,5.60
2023-02-24T06:42:48.352Z,5.60
2023-02-24T06:45:24.643Z,5.70
2023-02-24T06:47:55.175Z,5.80
2023-02-24T06:50:27.702Z,5.80
2023-02-24T06:53:02.366Z,5.90
2023-02-24T06:55:35.845Z,5.90
2023-02-24T06:58:19.538Z,6.00
2023-02-24T07:00:57.142Z,5.90
2023-02-24T07:03:40.526Z,6.10
2023-02-24T07:06:25.193Z,6.10
2023-02-24T07:09:04.425Z,6.10
2023-02-24T07:11:35.493Z,6.20
2023-02-24T07:14:08.019Z,6.10
2023-02-24T07:16:37.651Z,6.30
2023-02-24T07:19:11.476Z,6.30
2023-02-24T07:21:43.290Z,6.40
2023-02-24T07:24:13.608Z,6.40
2023-02-24T07:26:43.938Z,6.40
2023-02-24T07:29:13.652Z,6.40
2023-02-24T07:31:43.214Z,6.40
2023-02-24T07:34:15.223Z,6.50
2023-02-24T07:36:50.652Z,6.50
2023-02-24T07:39:20.111Z,6.50
2023-02-24T07:41:50.225Z,6.50
2023-02-24T07:44:23.936Z,6.50
2023-02-24T07:46:53.450Z,6.50
2023-02-24T07:49:26.318Z,6.50
2023-02-24T07:51:58.018Z,6.60
2023-02-24T07:54:30.637Z,6.60
2023-02-24T07:57:00.576Z,6.60
2023-02-24T07:59:30.981Z,6.40
2023-02-24T08:01:59.494Z,6.60
2023-02-24T08:04:33.329Z,6.70
2023-02-24T08:07:03.427Z,6.70
2023-02-24T08:10:09.342Z,6.70
2023-02-24T08:12:43.050Z,6.70
2023-02-24T08:15:25.858Z,6.70
2023-02-24T08:17:59.609Z,6.80
2023-02-24T08:20:36.402Z,6.80
2023-02-24T08:23:08.767Z,6.80
2023-02-24T08:25:38.464Z,6.80
2023-02-24T08:28:11.982Z,6.80
2023-02-24T08:30:46.056Z,6.80
2023-02-24T08:33:19.623Z,6.80
2023-02-24T08:35:59.575Z,6.90
2023-02-24T08:38:39.985Z,6.90
2023-02-24T08:41:17.985Z,6.90
2023-02-24T08:43:48.084Z,6.90
2023-02-24T08:46:21.170Z,6.90
2023-02-24T08:48:55.939Z,7.00
2023-02-24T08:51:30.385Z,6.90
2023-02-24T08:54:03.307Z,6.90
2023-02-24T08:56:35.063Z,7.00
2023-02-24T08:59:06.886Z,7.00
2023-02-24T09:01:37.729Z,7.00
2023-02-24T09:04:09.168Z,7.00
2023-02-24T09:06:46.520Z,7.00
2023-02-24T09:09:22.767Z,7.10
2023-02-24T09:11:56.580Z,7.10
2023-02-24T09:14:28.465Z,7.10
2023-02-24T09:17:03.623Z,7.10
2023-02-24T09:19:57.151Z,7.10
2023-02-24T09:22:41.168Z,7.10
2023-02-24T09:25:24.353Z,7.10
2023-02-24T09:27:56.022Z,7.10
2023-02-24T09:30:39.135Z,7.20
2023-02-24T09:33:18.919Z,7.20
2023-02-24T09:35:54.335Z,7.20
2023-02-24T09:38:47.330Z,7.20
2023-02-24T09:41:32.602Z,7.20
2023-02-24T09:44:07.928Z,7.20
2023-02-24T09:46:54.315Z,7.20
2023-02-24T09:49:26.048Z,7.20
2023-02-24T09:52:00.794Z,7.20
2023-02-24T09:54:35.450Z,7.20
2023-02-24T09:57:16.889Z,7.20
2023-02-24T10:00:22.789Z,7.40
2023-02-24T10:03:03.104Z,7.30
2023-02-24T10:05:38.868Z,7.40
2023-02-24T10:12:42.258Z,7.40
2023-02-24T10:16:05.934Z,7.30
2023-02-24T10:22:55.288Z,7.40
2023-02-24T10:26:39.161Z,7.40
2023-02-24T10:29:58.725Z,7.40
2023-02-24T10:33:15.800Z,7.40
2023-02-24T10:36:07.516Z,7.40
2023-02-24T10:39:30.487Z,7.40
2023-02-24T10:46:41.633Z,7.50
2023-02-24T10:49:41.793Z,7.50
2023-02-24T10:52:45.221Z,7.50
2023-02-24T10:56:18.645Z,7.30
2023-02-24T10:59:28.154Z,7.40
2023-02-24T11:02:34.142Z,7.40
2023-02-24T11:05:24.477Z,7.50
2023-02-24T11:08:10.650Z,7.50
2023-02-24T11:11:10.325Z,7.50
2023-02-24T11:14:18.463Z,7.50
2023-02-24T11:23:38.324Z,7.60
2023-02-24T11:29:51.782Z,7.70
2023-02-24T11:32:45.827Z,7.70
2023-02-24T11:35:27.697Z,7.80
2023-02-24T11:38:44.079Z,7.70
2023-02-24T11:41:34.741Z,7.70
2023-02-24T11:44:27.239Z,7.70
2023-02-24T11:47:39.758Z,7.80
2023-02-24T11:51:04.895Z,7.90
2023-02-24T11:54:38.014Z,7.90
2023-02-24T11:57:27.127Z,8.10
2023-02-24T12:00:27.885Z,8.20
2023-02-24T12:03:04.319Z,8.30
2023-02-24T12:05:36.921Z,8.40
2023-02-24T12:08:16.315Z,8.50
2023-02-24T12:10:51.795Z,8.60
2023-02-24T12:13:25.129Z,8.70
2023-02-24T12:16:00.093Z,8.70
2023-02-24T12:18:34.753Z,8.90
2023-02-24T12:21:42.804Z,8.90
2023-02-24T12:28:19.140Z,9.10
2023-02-24T12:31:04.948Z,9.10
2023-02-24T12:34:16.390Z,9.10
2023-02-24T12:37:10.891Z,9.10
2023-02-24T12:39:56.691Z,9.20
2023-02-24T12:42:35.650Z,9.30
2023-02-24T12:45:17.931Z,9.30
2023-02-24T12:48:03.176Z,9.40
2023-02-24T12:50:53.032Z,9.40
2023-02-24T12:53:26.508Z,9.40
2023-02-24T12:56:07.832Z,9.30
2023-02-24T12:58:39.730Z,9.30
2023-02-24T13:01:16.809Z,9.30
2023-02-24T13:03:59.039Z,9.20
2023-02-24T13:06:37.642Z,9.20
2023-02-24T13:09:14.797Z,9.20
2023-02-24T13:11:50.289Z,9.10
2023-02-24T13:14:25.729Z,9.20
2023-02-24T13:17:08.241Z,9.10
2023-02-24T13:19:37.161Z,9.10
2023-02-24T13:22:11.257Z,9.20
2023-02-24T13:24:42.682Z,9.20
2023-02-24T13:27:24.309Z,9.20
2023-02-24T13:29:56.594Z,9.30
2023-02-24T13:32:34.133Z,9.30
2023-02-24T13:35:03.969Z,9.30
2023-02-24T13:37:35.730Z,9.40
2023-02-24T13:40:23.335Z,9.40
2023-02-24T13:43:03.307Z,9.40
2023-02-24T13:45:35.310Z,9.40
2023-02-24T13:48:33.239Z,9.40
2023-02-24T13:51:23.208Z,9.40
2023-02-24T13:54:07.702Z,9.40
2023-02-24T13:56:44.687Z,9.40
2023-02-24T13:59:57.687Z,9.30
2023-02-24T14:02:29.698Z,9.30
2023-02-24T14:05:03.459Z,9.30
2023-02-24T14:07:37.345Z,9.20
2023-02-24T14:10:15.646Z,9.10
2023-02-24T14:12:45.361Z,9.10
2023-02-24T14:15:18.183Z,9.00
2023-02-24T14:17:55.006Z,9.00
2023-02-24T14:20:27.283Z,9.00
2023-02-24T14:22:58.861Z,9.00
2023-02-24T14:25:29.924Z,9.00
2023-02-24T14:27:58.667Z,9.00
2023-02-24T14:30:33.196Z,9.10
2023-02-24T14:33:02.865Z,9.00
2023-02-24T14:35:36.985Z,9.10
2023-02-24T14:38:06.421Z,9.10
2023-02-24T14:40:35.159Z,9.20
2023-02-24T14:43:04.470Z,9.30
2023-02-24T14:45:33.946Z,9.30
2023-02-24T14:48:07.574Z,9.40
2023-02-24T14:50:38.358Z,9.50
2023-02-24T14:53:11.307Z,9.30
2023-02-24T14:55:43.053Z,9.20
2023-02-24T14:58:38.381Z,9.10
2023-02-24T15:01:19.908Z,9.00
2023-02-24T15:03:52.247Z,8.90
2023-02-24T15:06:25.161Z,8.90
2023-02-24T15:09:00.928Z,9.00
2023-02-24T15:11:31.669Z,8.90
2023-02-24T15:14:02.862Z,9.00
2023-02-24T15:16:39.225Z,8.90
2023-02-24T15:19:25.995Z,9.00
2023-02-24T15:21:54.553Z,9.00
2023-02-24T15:24:35.537Z,9.10
2023-02-24T15:27:21.250Z,9.10
2023-02-24T15:30:00.779Z,9.10
2023-02-24T15:32:41.849Z,9.20
2023-02-24T15:35:24.322Z,9.00
2023-02-24T15:37:55.045Z,9.00
2023-02-24T15:40:26.598Z,8.90
2023-02-24T15:42:56.961Z,8.80
2023-02-24T15:45:29.533Z,8.80
2023-02-24T15:48:00.698Z,8.90
2023-02-24T15:50:30.634Z,8.90
2023-02-24T15:53:01.435Z,8.90
2023-02-24T15:55:30.840Z,9.10
2023-02-24T15:58:01.741Z,9.00
2023-02-24T16:00:31.419Z,9.00
2023-02-24T16:03:00.991Z,9.00
2023-02-24T16:05:29.367Z,9.10
2023-02-24T16:07:57.500Z,9.10
2023-02-24T16:10:28.225Z,9.10
2023-02-24T16:12:58.680Z,9.00
2023-02-24T16:15:30.607Z,9.00
2023-02-24T16:18:02.456Z,8.90
2023-02-24T16:20:33.708Z,8.80
2023-02-24T16:23:04.230Z,8.70
2023-02-24T16:25:37.548Z,8.60
2023-02-24T16:28:08.384Z,8.60
2023-02-24T16:30:36.733Z,8.60
2023-02-24T16:33:07.214Z,8.60
2023-02-24T16:35:35.897Z,8.70
2023-02-24T16:38:05.772Z,8.60
2023-02-24T16:40:37.765Z,8.60
2023-02-24T16:43:06.500Z,8.60
2023-02-24T16:45:36.389Z,8.60
2023-02-24T16:48:09.473Z,8.50
2023-02-24T16:50:40.357Z,8.50
2023-02-24T16:53:09.292Z,8.30
2023-02-24T16:55:37.482Z,8.00
2023-02-24T16:58:08.822Z,7.90
2023-02-24T17:00:37.490Z,7.90
2023-02-24T17:03:15.297Z,7.80
2023-02-24T17:05:44.351Z,7.80
2023-02-24T17:08:16.805Z,7.80
2023-02-24T17:10:47.168Z,7.80
2023-02-24T17:13:17.508Z,7.80
2023-02-24T17:15:45.880Z,7.80
2023-02-24T17:18:15.313Z,7.80
2023-02-24T17:20:43.604Z,7.80
2023-02-24T17:23:12.634Z,7.80
2023-02-24T17:25:40.819Z,7.80
2023-02-24T17:28:08.869Z,7.70
2023-02-24T17:30:37.427Z,7.80
2023-02-24T17:33:07.144Z,7.80
2023-02-24T17:35:37.047Z,7.80
2023-02-24T17:38:05.158Z,7.80
2023-02-24T17:40:35.422Z,7.80
2023-02-24T17:43:03.571Z,7.70
2023-02-24T17:45:31.662Z,7.70
2023-02-24T17:48:00.024Z,7.80
2023-02-24T17:50:28.031Z,7.80
2023-02-24T17:52:58.214Z,7.80
2023-02-24T17:55:26.471Z,7.60
2023-02-24T17:57:57.017Z,7.50
2023-02-24T18:00:25.749Z,7.40
2023-02-24T18:02:54.205Z,7.40
2023-02-24T18:05:22.510Z,7.40
2023-02-24T18:07:50.829Z,7.40
2023-02-24T18:10:21.072Z,7.30
2023-02-24T18:12:49.304Z,7.40
2023-02-24T18:15:17.605Z,7.40
2023-02-24T18:17:47.258Z,7.30
2023-02-24T18:20:15.885Z,7.30
2023-02-24T18:22:44.236Z,7.50
2023-02-24T18:25:13.688Z,7.20
2023-02-24T18:27:43.456Z,7.30
2023-02-24T18:30:13.248Z,7.30
2023-02-24T18:32:44.673Z,7.30
2023-02-24T18:35:16.569Z,7.30
2023-02-24T18:37:44.737Z,7.30
2023-02-24T18:40:14.471Z,7.30
2023-02-24T18:42:46.491Z,7.30
2023-02-24T18:45:16.917Z,7.30
2023-02-24T18:47:45.085Z,7.30
2023-02-24T18:50:14.428Z,7.30
2023-02-24T18:52:43.098Z,7.30
2023-02-24T18:55:12.731Z,7.20
2023-02-24T18:57:42.376Z,7.20
2023-02-24T19:00:14.249Z,7.10
2023-02-24T19:02:42.662Z,7.00
2023-02-24T19:05:11.628Z,7.00
2023-02-24T19:07:43.019Z,7.00
2023-02-24T19:10:12.692Z,7.00
2023-02-24T19:12:41.451Z,6.90
2023-02-24T19:15:11.525Z,7.10
2023-02-24T19:17:39.575Z,6.90
2023-02-24T19:20:09.667Z,6.90
2023-02-24T19:22:37.900Z,6.90
2023-02-24T19:25:06.632Z,6.90
2023-02-24T19:27:34.738Z,6.90
2023-02-24T19:30:02.796Z,7.00
2023-02-24T19:32:32.572Z,7.00
2023-02-24T19:35:00.744Z,7.00
2023-02-24T19:37:29.436Z,7.00
2023-02-24T19:39:57.908Z,6.90
2023-02-24T19:42:26.334Z,7.00
2023-02-24T19:44:54.644Z,6.80
2023-02-24T19:47:22.693Z,6.80
2023-02-24T19:49:52.662Z,6.80
2023-02-24T19:52:20.625Z,6.80
2023-02-24T19:54:48.726Z,6.80
2023-02-24T19:57:16.819Z,6.80
2023-02-24T19:59:45.942Z,6.90
2023-02-24T20:02:13.918Z,6.90
2023-02-24T20:04:42.131Z,6.90
2023-02-24T20:07:11.759Z,6.90
2023-02-24T20:09:42.344Z,6.80
2023-02-24T20:12:12.134Z,6.90
2023-02-24T20:14:40.627Z,6.80
2023-02-24T20:17:08.814Z,6.90
2023-02-24T20:19:42.856Z,7.10
2023-02-24T20:22:13.070Z,7.00
2023-02-24T20:24:41.176Z,7.10
2023-02-24T20:27:09.273Z,7.10
2023-02-24T20:29:37.673Z,7.20
2023-02-24T20:32:05.784Z,7.10
2023-02-24T20:34:35.939Z,7.20
2023-02-24T20:37:05.178Z,7.10
2023-02-24T20:39:36.492Z,6.90
2023-02-24T20:42:04.760Z,6.80
2023-02-24T20:44:33.133Z,6.80
2023-02-24T20:47:01.362Z,6.70
2023-02-24T20:49:33.505Z,6.50
2023-02-24T20:52:01.605Z,6.40
2023-02-24T20:54:31.634Z,6.20
2023-02-24T20:57:01.159Z,6.20
2023-02-24T20:59:29.205Z,6.20
2023-02-24T21:01:57.460Z,6.20
2023-02-24T21:04:25.997Z,6.20
2023-02-24T21:06:54.422Z,6.30
2023-02-24T21:09:23.754Z,6.20
2023-02-24T21:11:51.746Z,6.20
2023-02-24T21:14:23.107Z,6.30
2023-02-24T21:16:51.151Z,6.30
2023-02-24T21:19:20.358Z,6.40
2023-02-24T21:21:51.978Z,6.40
2023-02-24T21:24:21.146Z,6.40
2023-02-24T21:26:49.274Z,6.40
2023-02-24T21:29:18.401Z,6.50
2023-02-24T21:31:50.073Z,6.50
2023-02-24T21:34:18.706Z,6.60
2023-02-24T21:36:47.114Z,6.60
2023-02-24T21:39:15.352Z,6.60
2023-02-24T21:41:43.622Z,6.60
2023-02-24T21:44:14.298Z,6.70
2023-02-24T21:46:48.229Z,6.50
2023-02-24T21:49:19.986Z,6.80
2023-02-24T21:51:50.719Z,6.80
2023-02-24T21:54:18.900Z,6.80
2023-02-24T21:56:47.412Z,6.80
2023-02-24T21:59:15.863Z,6.70
2023-02-24T22:01:45.483Z,6.70
2023-02-24T22:04:15.918Z,6.80
2023-02-24T22:06:45.928Z,6.80
2023-02-24T22:09:19.218Z,6.70
2023-02-24T22:11:48.824Z,6.70
2023-02-24T22:14:17.178Z,6.80
2023-02-24T22:16:46.916Z,6.50
2023-02-24T22:19:15.246Z,6.60
2023-02-24T22:21:43.412Z,6.60
2023-02-24T22:24:17.190Z,6.70
2023-02-24T22:26:46.499Z,6.70
2023-02-24T22:29:14.608Z,6.70
2023-02-24T22:31:44.163Z,6.70
2023-02-24T22:34:13.272Z,6.80
2023-02-24T22:36:50.809Z,6.90
2023-02-24T22:39:23.098Z,6.60
2023-02-24T22:41:52.661Z,6.50
2023-02-24T22:44:22.676Z,6.40
2023-02-24T22:46:50.959Z,6.40
2023-02-24T22:49:19.322Z,6.40
2023-02-24T22:51:47.589Z,6.40
2023-02-24T22:54:16.305Z,6.40
2023-02-24T22:56:46.273Z,6.30
2023-02-24T22:59:14.842Z,6.40
2023-02-24T23:01:45.976Z,6.40
2023-02-24T23:04:28.932Z,6.50
2023-02-24T23:06:57.286Z,6.50
2023-02-24T23:09:25.733Z,6.50
2023-02-24T23:11:55.262Z,6.40
2023-02-24T23:14:23.405Z,6.50
2023-02-24T23:16:55.550Z,6.50
2023-02-24T23:19:24.352Z,6.50
2023-02-24T23:21:54.358Z,6.50
2023-02-24T23:24:23.894Z,6.50
2023-02-24T23:26:57.521Z,6.70
2023-02-24T23:29:27.737Z,6.50
2023-02-24T23:31:59.691Z,6.50
2023-02-24T23:34:28.130Z,6.50
2023-02-24T23:36:56.381Z,6.50
2023-02-24T23:39:24.471Z,6.50
2023-02-24T23:41:57.606Z,6.50
2023-02-24T23:44:28.897Z,6.50
2023-02-24T23:46:58.634Z,6.50
2023-02-24T23:49:36.136Z,6.60
2023-02-24T23:52:11.965Z,6.50
2023-02-24T23:54:40.144Z,6.60
2023-02-24T23:57:10.081Z,6.70
2023-02-24T23:59:39.384Z,6.70
